Erzurum, Turkey

11:24 AM EEST on October 02, 2014 (GMT +0300)
Erzurum | Change Station
CLOSE
Current Station
Airport
Location: Erzurum,
Elevation: 5768 ft
Nearby Weather Stations

Elev 5768 ft 39.96 °N, 41.17 °E | Updated 34 minutes ago

Partly Cloudy
Partly Cloudy
55 °F
Feels Like 55 °F
N
6
Wind Variable Wind from East

Today
High -- | Low -- °F
--% Chance of Precip.
Yesterday
High -- | Low -- °F
Precip. -- in
6:12 AM 5:56 PM
First Quarter, 56% visible
Pressure 30.24 in
Visibility 6.2 miles
Clouds Few 3000 ft
Dew Point 39 °F
Humidity 54%
Rainfall 0.00 in
Snow Depth Not available.
UV 6 out of 12
Pollen Not available.
Air Quality Not available.
Flu Activity Not available.
METAR LTCE 020750Z 08005KT 030V110 9999 FEW030 13/04 Q1024 NOSIG RMK RWY08R 07006KT 020V110 RWY26R 08005KT 040V110 RWY08L VRB05KT

More Conditions Fewer Conditions

Pressure 30.24 in
Visibility 6.2 miles
Clouds Few 3000 ft
Dew Point 39 °F
Humidity 54%
Rainfall 0.00 in
Snow Depth Not available.
UV 6 out of 12
Pollen Not available.
Air Quality Not available.
Flu Activity Not available.
METAR LTCE 020750Z 08005KT 030V110 9999 FEW030 13/04 Q1024 NOSIG RMK RWY08R 07006KT 020V110 RWY26R 08005KT 040V110 RWY08L VRB05KT

More Conditions Fewer Conditions

10-Day Weather Forecast

Almanac

Astronomy

Oct. 02, 2014 Rise Set
Actual Time 6:12 AM EEST 5:56 PM EEST
Civil Twilight 5:45 AM EEST 6:23 PM EEST
Nautical Twilight 5:13 AM EEST 6:54 PM EEST
Astronomical Twilight 4:42 AM EEST 7:26 PM EEST
Moon 1:44 PM EEST No Moon Set
Length of Visible Light 12h 38m
Length of Day
11h 44m
Tomorrow will be 2m 36s shorter.
First Quarter, 56% of the Moon is Illuminated
Today
First Quarter
Oct 8
Full
Oct 15
Last Quarter
Oct 23
New
Oct 30
First Quarter

Yesterday's Extremes

Country Highs Country Lows

Community

WunderPhotos

Upload Photos

1,758,196 photos uploaded!

WunderBlogs® & News

By Dr. Jeff Masters
Director of Meteorology, Weather Underground
By Kari Strenfel
Meteorologist, Weather Underground
By Christopher C. Burt
Weather Historian, Weather Underground
October 2, 2014
October 2, 2014
October 2, 2014

Nearby

Snow Depth

Not available.

Earthquake Activity

City Distance Mag. Time & Date
No recent earthquake activity has been reported nearby.
Minimum magnitude displayed is 2.5.

Coastal Water Temperatures

Place Temperature
No Stations Reporting

Nearby Weather Stations